createdAt,value
2023-02-04T00:05:05.414Z,0
2023-02-04T00:11:28.429Z,0
2023-02-04T00:17:48.454Z,0
2023-02-04T00:24:11.398Z,0
2023-02-04T00:30:31.847Z,0
2023-02-04T00:36:54.368Z,0
2023-02-04T00:43:14.469Z,0
2023-02-04T00:49:37.348Z,0
2023-02-04T00:55:57.476Z,0
2023-02-04T01:02:20.377Z,0
2023-02-04T01:08:40.491Z,0
2023-02-04T01:15:03.423Z,0
2023-02-04T01:21:23.420Z,0
2023-02-04T01:27:46.437Z,0
2023-02-04T01:34:06.510Z,0
2023-02-04T01:40:29.817Z,0
2023-02-04T01:46:49.399Z,0
2023-02-04T01:53:12.416Z,0
2023-02-04T01:59:32.419Z,0
2023-02-04T02:05:55.420Z,0
2023-02-04T02:12:15.381Z,0
2023-02-04T02:18:38.358Z,0
2023-02-04T02:24:58.497Z,0
2023-02-04T02:31:21.493Z,0
2023-02-04T02:37:41.440Z,0
2023-02-04T02:44:04.378Z,0
2023-02-04T02:50:24.461Z,0
2023-02-04T02:56:47.335Z,0
2023-02-04T03:03:07.384Z,0
2023-02-04T03:09:30.428Z,0
2023-02-04T03:15:50.408Z,0
2023-02-04T03:22:13.400Z,0
2023-02-04T03:28:33.464Z,0
2023-02-04T03:34:56.365Z,0
2023-02-04T03:41:16.421Z,0
2023-02-04T03:47:39.372Z,0
2023-02-04T03:53:59.475Z,0
2023-02-04T04:00:22.399Z,0
2023-02-04T04:06:42.389Z,0
2023-02-04T04:13:05.449Z,0
2023-02-04T04:36:29.362Z,0
2023-02-04T04:42:49.405Z,0
2023-02-04T04:49:12.384Z,0
2023-02-04T04:55:32.372Z,0
2023-02-04T05:01:55.358Z,0
2023-02-04T05:08:15.395Z,0
2023-02-04T05:14:38.367Z,0
2023-02-04T05:20:58.376Z,0
2023-02-04T05:27:21.381Z,0
2023-02-04T05:33:41.416Z,0
2023-02-04T05:40:04.337Z,0
2023-02-04T05:46:24.350Z,0
2023-02-04T05:52:47.406Z,0
2023-02-04T05:59:07.406Z,0
2023-02-04T06:05:30.448Z,0
2023-02-04T06:11:50.425Z,0
2023-02-04T06:18:13.351Z,0
2023-02-04T06:24:33.410Z,0
2023-02-04T06:30:56.496Z,0
2023-02-04T06:37:16.371Z,1
2023-02-04T06:43:39.435Z,1
2023-02-04T06:49:59.390Z,5
2023-02-04T06:56:22.405Z,10
2023-02-04T07:02:42.373Z,26
2023-02-04T07:09:05.491Z,48
2023-02-04T07:15:25.367Z,86
2023-02-04T07:21:48.395Z,122
2023-02-04T07:28:08.518Z,166
2023-02-04T07:34:31.379Z,263
2023-02-04T07:40:51.370Z,333
2023-02-04T07:47:14.390Z,426
2023-02-04T07:53:34.366Z,521
2023-02-04T07:59:57.397Z,571
2023-02-04T08:06:17.413Z,565
2023-02-04T08:12:40.317Z,645
2023-02-04T08:19:00.413Z,687
2023-02-04T08:25:23.386Z,700
2023-02-04T08:31:43.473Z,787
2023-02-04T08:38:06.397Z,838
2023-02-04T08:44:26.345Z,1096
2023-02-04T08:50:49.373Z,1131
2023-02-04T08:57:09.358Z,1038
2023-02-04T09:03:32.466Z,1052
2023-02-04T09:09:52.418Z,1330
2023-02-04T09:16:15.400Z,1423
2023-02-04T09:22:35.415Z,1492
2023-02-04T09:28:58.374Z,1608
2023-02-04T09:35:18.420Z,1679
2023-02-04T09:51:28.307Z,1350
2023-02-04T09:57:48.354Z,1312
2023-02-04T10:04:11.386Z,1728
2023-02-04T10:10:31.666Z,1958
2023-02-04T10:16:54.440Z,2210
2023-02-04T10:23:14.424Z,1995
2023-02-04T10:29:37.390Z,2021
2023-02-04T10:35:57.361Z,2098
2023-02-04T10:42:20.338Z,2020
2023-02-04T10:48:40.381Z,2185
2023-02-04T10:55:03.456Z,2133
2023-02-04T11:01:23.416Z,2126
2023-02-04T11:07:46.421Z,3905
2023-02-04T11:14:06.423Z,2441
2023-02-04T11:20:29.418Z,2002
2023-02-04T11:26:51.497Z,2108
2023-02-04T11:33:12.343Z,2693
2023-02-04T11:39:32.342Z,4076
2023-02-04T11:45:55.408Z,2376
2023-02-04T11:52:15.365Z,2364
2023-02-04T11:58:38.427Z,1631
2023-02-04T12:04:58.406Z,1956
2023-02-04T12:11:21.345Z,2380
2023-02-04T12:17:41.369Z,2461
2023-02-04T12:24:04.368Z,2393
2023-02-04T12:30:24.372Z,2296
2023-02-04T12:36:47.364Z,2222
2023-02-04T12:43:07.378Z,2153
2023-02-04T12:49:30.427Z,2267
2023-02-04T12:55:50.342Z,2116
2023-02-04T13:02:13.476Z,2017
2023-02-04T13:08:33.347Z,2040
2023-02-04T13:14:56.386Z,2164
2023-02-04T13:21:16.528Z,2157
2023-02-04T13:27:39.391Z,1858
2023-02-04T13:33:59.468Z,1814
2023-02-04T13:40:22.372Z,1970
2023-02-04T13:46:42.376Z,2180
2023-02-04T13:53:05.409Z,2327
2023-02-04T13:59:25.363Z,2712
2023-02-04T14:05:48.405Z,4741
2023-02-04T14:12:08.348Z,4080
2023-02-04T14:18:31.454Z,4543
2023-02-04T14:24:51.430Z,2739
2023-02-04T14:31:14.377Z,2789
2023-02-04T14:37:34.447Z,3202
2023-02-04T14:43:57.338Z,3693
2023-02-04T14:50:17.353Z,3209
2023-02-04T14:56:40.432Z,2526
2023-02-04T15:03:00.332Z,2649
2023-02-04T15:18:53.234Z,1582
2023-02-04T15:25:13.372Z,1516
2023-02-04T15:31:36.548Z,1357
2023-02-04T15:37:56.388Z,1138
2023-02-04T15:44:19.319Z,841
2023-02-04T15:50:39.367Z,657
2023-02-04T15:57:02.404Z,430
2023-02-04T16:03:22.353Z,318
2023-02-04T16:09:45.463Z,281
2023-02-04T16:16:05.428Z,195
2023-02-04T16:22:28.383Z,125
2023-02-04T16:28:48.361Z,71
2023-02-04T16:35:11.461Z,35
2023-02-04T16:41:31.448Z,16
2023-02-04T16:47:54.330Z,7
2023-02-04T16:54:14.403Z,2
2023-02-04T17:00:37.386Z,1
2023-02-04T17:06:57.365Z,1
2023-02-04T17:13:20.545Z,0
2023-02-04T17:19:40.541Z,0
2023-02-04T17:26:03.412Z,0
2023-02-04T17:32:23.385Z,0
2023-02-04T17:38:46.424Z,0
2023-02-04T17:45:06.393Z,0
2023-02-04T17:51:29.370Z,0
2023-02-04T17:57:49.343Z,0
2023-02-04T18:04:12.390Z,0
2023-02-04T18:10:32.995Z,0
2023-02-04T18:16:55.451Z,0
2023-02-04T18:23:15.726Z,0
2023-02-04T18:29:38.513Z,0
2023-02-04T18:35:58.366Z,0
2023-02-04T18:42:21.386Z,0
2023-02-04T18:48:41.415Z,0
2023-02-04T18:55:04.324Z,0
2023-02-04T19:01:24.428Z,0
2023-02-04T19:07:47.417Z,0
2023-02-04T19:14:07.351Z,0
2023-02-04T19:20:30.438Z,0
2023-02-04T19:26:50.441Z,0
2023-02-04T19:33:13.804Z,0
2023-02-04T19:39:33.375Z,0
2023-02-04T19:45:56.417Z,0
2023-02-04T19:52:16.473Z,0
2023-02-04T19:58:39.364Z,0
2023-02-04T20:04:59.393Z,0
2023-02-04T20:28:53.370Z,0
2023-02-04T20:35:16.317Z,0
2023-02-04T20:41:36.413Z,0
2023-02-04T20:47:59.428Z,0
2023-02-04T20:54:19.319Z,0
2023-02-04T21:00:42.385Z,0
2023-02-04T21:07:02.625Z,0
2023-02-04T21:13:25.379Z,0
2023-02-04T21:19:45.371Z,0
2023-02-04T21:26:08.398Z,0
2023-02-04T21:32:28.445Z,0
2023-02-04T21:38:51.348Z,0
2023-02-04T21:45:11.438Z,0
2023-02-04T21:51:34.375Z,0
2023-02-04T21:57:54.819Z,0
2023-02-04T22:04:17.409Z,0
2023-02-04T22:10:37.356Z,0
2023-02-04T22:17:00.343Z,0
2023-02-04T22:23:20.441Z,0
2023-02-04T22:29:43.350Z,0
2023-02-04T22:36:03.503Z,0
2023-02-04T22:42:26.404Z,0
2023-02-04T22:48:46.696Z,0
2023-02-04T22:55:09.427Z,0
2023-02-04T23:20:40.338Z,0
2023-02-04T23:27:00.437Z,0
2023-02-04T23:33:23.345Z,0
2023-02-04T23:39:43.498Z,0
2023-02-04T23:46:06.444Z,0
2023-02-04T23:52:26.393Z,0
2023-02-04T23:58:49.352Z,0
